Time;durP1;ratioP1;P1;durP2;ratioP2;P2;SDS_P1;SDS_P2;PMS_P1;PMS_P2;Temp;Humidity;BMP_temperature;BMP_pressure;BME280_temperature;BME280_humidity;BME280_pressure;Samples;Min_cycle;Max_cycle;Signal;HPM_P1;HPM_P2
2023/07/05 09:03:58;;;;;;;7.30;3.83;;;;;;;16.39;71.22;100653.69;6207955;22;1331640;-75
2023/07/05 09:06:38;;;;;;;6.15;3.28;;;;;;;16.59;71.75;100648.47;6153046;23;20091;-72
2023/07/05 09:09:12;;;;;;;5.75;3.35;;;;;;;16.60;69.34;100665.19;6180734;23;20009;-71
2023/07/05 09:12:12;;;;;;;10.23;3.70;;;;;;;16.73;70.72;100649.69;6177020;23;20430;-70
2023/07/05 09:15:00;;;;;;;11.48;3.45;;;;;;;16.66;68.99;100657.00;6178111;23;20096;-71
2023/07/05 09:17:37;;;;;;;12.52;4.05;;;;;;;16.74;69.67;100664.66;6181832;23;20001;-70
2023/07/05 09:20:30;;;;;;;6.38;3.63;;;;;;;16.86;68.64;100663.28;6181434;23;20128;-71
2023/07/05 09:23:00;;;;;;;6.95;2.97;;;;;;;16.84;66.96;100681.88;6181843;23;20046;-70
2023/07/05 09:25:30;;;;;;;7.22;3.00;;;;;;;16.65;64.97;100670.31;6182438;23;20028;-71
2023/07/05 09:28:12;;;;;;;8.88;3.75;;;;;;;16.74;68.44;100676.09;6182461;23;20025;-71
2023/07/05 09:30:38;;;;;;;8.40;3.58;;;;;;;16.85;68.23;100667.75;6181443;23;20092;-71
2023/07/05 09:33:10;;;;;;;8.00;3.42;;;;;;;17.11;69.16;100700.22;6181385;23;20257;-71
2023/07/05 09:35:38;;;;;;;8.05;3.13;;;;;;;17.17;64.89;100721.16;6181306;23;20009;-71
2023/07/05 09:38:12;;;;;;;8.93;3.05;;;;;;;17.13;66.30;100712.47;6180358;23;20092;-70
2023/07/05 09:40:45;;;;;;;8.75;2.70;;;;;;;17.25;64.91;100702.31;6182555;23;20008;-70
2023/07/05 09:43:29;;;;;;;10.57;3.55;;;;;;;17.37;65.49;100703.56;6181765;23;20005;-70
2023/07/05 09:45:55;;;;;;;5.90;2.80;;;;;;;17.55;65.93;100709.88;6182603;23;20040;-70
2023/07/05 09:48:20;;;;;;;5.25;2.88;;;;;;;17.47;62.29;100726.97;6157051;23;20119;-75
2023/07/05 09:50:49;;;;;;;7.97;2.85;;;;;;;17.58;62.70;100730.94;6132584;23;20092;-76
2023/07/05 09:53:30;;;;;;;7.85;2.97;;;;;;;17.66;63.71;100724.38;6181026;23;20005;-74
2023/07/05 09:56:08;;;;;;;6.80;2.65;;;;;;;17.59;62.23;100722.94;6181847;23;20020;-74
2023/07/05 09:58:35;;;;;;;5.72;2.22;;;;;;;17.59;62.14;100728.22;6182271;23;20001;-76
2023/07/05 10:01:04;;;;;;;6.10;2.35;;;;;;;17.60;60.80;100753.81;6182173;23;20001;-74
2023/07/05 10:03:36;;;;;;;7.55;2.42;;;;;;;17.70;61.32;100738.38;6157521;23;20316;-74
2023/07/05 10:06:07;;;;;;;6.80;2.33;;;;;;;17.67;58.03;100749.97;6157070;23;20091;-76
2023/07/05 10:08:43;;;;;;;6.07;1.98;;;;;;;17.70;59.98;100756.94;6181629;23;20100;-75
2023/07/05 10:11:33;;;;;;;8.05;2.00;;;;;;;17.62;57.27;100753.75;6181945;23;20435;-75
2023/07/05 10:14:12;;;;;;;7.13;1.88;;;;;;;17.88;61.11;100762.34;6181189;23;20331;-74
2023/07/05 10:16:48;;;;;;;9.20;2.15;;;;;;;18.06;59.08;100773.97;6182219;23;20047;-75
2023/07/05 10:19:24;;;;;;;7.35;2.78;;;;;;;18.13;57.12;100788.66;6182054;23;20001;-73
2023/07/05 10:22:12;;;;;;;7.88;2.00;;;;;;;18.05;57.83;100788.16;6180044;23;20001;-75
2023/07/05 10:24:49;;;;;;;7.03;1.70;;;;;;;17.82;55.59;100782.03;6181980;23;20013;-75
2023/07/05 10:27:32;;;;;;;6.47;1.80;;;;;;;17.80;57.22;100810.38;6181563;23;20087;-74
2023/07/05 10:30:02;;;;;;;9.63;2.10;;;;;;;17.79;56.13;100809.53;6181484;23;20013;-73
2023/07/05 10:32:30;;;;;;;5.90;1.98;;;;;;;17.84;56.41;100807.56;6182398;23;20139;-76
2023/07/05 10:34:57;;;;;;;6.38;1.95;;;;;;;18.00;56.58;100812.22;6182576;23;20013;-74
2023/07/05 10:37:36;;;;;;;11.85;1.95;;;;;;;18.12;55.74;100818.78;6131780;23;20438;-73
2023/07/05 10:40:05;;;;;;;6.53;1.60;;;;;;;18.16;53.99;100813.28;6181466;23;20009;-73
2023/07/05 10:42:32;;;;;;;5.47;1.90;;;;;;;18.20;54.75;100843.16;6181436;23;20704;-75
2023/07/05 10:45:00;;;;;;;4.35;1.50;;;;;;;18.27;53.51;100820.75;6157161;23;20005;-73
2023/07/05 10:47:27;;;;;;;8.18;1.40;;;;;;;18.34;53.35;100832.81;6181984;23;20009;-73
2023/07/05 10:49:59;;;;;;;6.93;1.45;;;;;;;18.17;52.45;100822.09;6181636;23;20005;-76
2023/07/05 10:52:25;;;;;;;7.88;1.88;;;;;;;18.07;52.14;100844.63;6180221;23;20005;-76
2023/07/05 10:55:13;;;;;;;4.18;1.60;;;;;;;18.13;52.86;100852.31;6132280;23;20005;-76
2023/07/05 10:57:45;;;;;;;7.82;1.48;;;;;;;18.18;52.36;100853.84;6182062;23;20037;-76
2023/07/05 11:00:24;;;;;;;4.07;1.42;;;;;;;18.37;53.80;100844.22;6181913;23;20032;-74
2023/07/05 11:02:56;;;;;;;6.65;1.52;;;;;;;18.33;50.73;100854.97;6180992;23;20111;-76
2023/07/05 11:05:41;;;;;;;7.45;1.80;;;;;;;18.42;51.71;100850.19;6181210;23;20046;-75
2023/07/05 11:08:15;;;;;;;5.65;1.63;;;;;;;18.49;52.14;100851.66;6180191;23;20005;-73
2023/07/05 11:10:41;;;;;;;4.43;1.58;;;;;;;18.53;51.17;100866.47;6181661;23;20005;-74
2023/07/05 11:13:13;;;;;;;6.50;1.92;;;;;;;18.57;51.47;100857.47;6130067;23;20036;-74
2023/07/05 11:15:39;;;;;;;4.82;1.52;;;;;;;18.75;51.23;100858.44;6180326;23;20015;-73
2023/07/05 11:18:07;;;;;;;6.43;1.92;;;;;;;18.88;50.31;100864.06;6132052;23;20002;-74
2023/07/05 11:20:39;;;;;;;4.28;1.27;;;;;;;18.94;51.48;100876.19;6155941;23;20016;-73
2023/07/05 11:23:09;;;;;;;8.60;1.40;;;;;;;18.97;50.05;100876.06;6181032;23;20357;-75
2023/07/05 11:25:52;;;;;;;6.97;1.48;;;;;;;18.99;51.01;100877.72;6157647;23;20024;-75
2023/07/05 11:28:47;;;;;;;7.15;1.65;;;;;;;19.10;52.45;100881.66;6180585;23;20021;-74
2023/07/05 11:31:39;;;;;;;8.32;1.40;;;;;;;19.22;52.25;100878.41;6131841;23;20009;-74
2023/07/05 11:34:43;;;;;;;5.10;1.40;;;;;;;19.31;50.39;100891.28;6181850;23;20350;-74
2023/07/05 11:37:08;;;;;;;5.85;2.08;;;;;;;19.28;49.98;100898.50;6122726;23;20009;-74
2023/07/05 11:39:48;;;;;;;8.18;1.88;;;;;;;19.29;49.53;100889.63;6183870;23;20087;-74
2023/07/05 11:42:13;;;;;;;7.13;2.20;;;;;;;19.34;49.24;100890.28;6159639;23;20005;-74
2023/07/05 11:44:46;;;;;;;6.47;1.75;;;;;;;19.26;48.36;100890.63;6183431;23;20270;-75
2023/07/05 11:47:23;;;;;;;9.48;2.17;;;;;;;19.45;49.44;100913.66;6158812;23;20121;-75
2023/07/05 11:49:57;;;;;;;5.00;1.60;;;;;;;19.52;51.27;100918.63;6183788;23;20013;-74
2023/07/05 11:52:26;;;;;;;6.97;1.60;;;;;;;19.56;49.76;100914.00;6182569;23;20032;-76
2023/07/05 11:54:51;;;;;;;4.97;1.85;;;;;;;19.86;51.73;100924.97;6183700;23;20423;-73
2023/07/05 11:57:16;;;;;;;6.18;1.70;;;;;;;19.80;47.71;100925.28;6183360;23;20005;-74
2023/07/05 11:59:58;;;;;;;3.92;1.50;;;;;;;19.56;47.93;100935.28;6133854;23;20408;-75
2023/07/05 12:02:38;;;;;;;6.10;1.63;;;;;;;19.56;47.69;100929.94;6183156;23;20493;-74
2023/07/05 12:05:10;;;;;;;11.13;2.03;;;;;;;19.53;47.27;100936.28;6181626;23;20308;-73
2023/07/05 12:07:37;;;;;;;7.50;1.80;;;;;;;19.60;49.25;100931.53;6181808;23;20289;-74
2023/07/05 12:10:05;;;;;;;4.60;1.65;;;;;;;19.79;48.32;100941.31;6130968;23;20075;-76
2023/07/05 12:12:37;;;;;;;6.00;1.55;;;;;;;19.72;47.58;100943.34;6181807;23;20013;-74
2023/07/05 12:15:03;;;;;;;4.28;1.70;;;;;;;19.87;47.81;100947.97;6182042;23;20012;-75
2023/07/05 12:17:29;;;;;;;5.55;1.58;;;;;;;19.95;47.51;100954.72;6133867;23;20179;-77
2023/07/05 12:19:56;;;;;;;5.70;1.80;;;;;;;20.11;46.76;100954.81;6133091;23;20009;-74
2023/07/05 12:22:25;;;;;;;3.50;1.40;;;;;;;20.28;46.11;100954.81;6182160;23;20311;-75
2023/07/05 12:24:52;;;;;;;6.03;1.60;;;;;;;20.17;44.96;100957.16;6158592;23;20009;-74
2023/07/05 12:27:29;;;;;;;5.25;1.75;;;;;;;20.07;45.57;100965.59;6158085;23;20367;-73
2023/07/05 12:29:57;;;;;;;4.05;1.30;;;;;;;20.04;45.17;100973.75;6183809;23;20005;-74
2023/07/05 12:32:26;;;;;;;5.57;1.80;;;;;;;19.97;45.56;100982.06;6183262;23;20467;-75
2023/07/05 12:35:10;;;;;;;6.25;1.70;;;;;;;20.22;46.02;100981.75;6183055;23;20071;-73
2023/07/05 12:37:36;;;;;;;4.60;1.42;;;;;;;20.40;44.57;100969.28;6182184;23;20009;-73
2023/07/05 12:40:26;;;;;;;4.90;1.85;;;;;;;20.63;45.69;100968.13;6158615;23;20048;-73
2023/07/05 12:42:59;;;;;;;4.13;1.60;;;;;;;20.69;44.94;100975.81;6182491;23;20092;-73
2023/07/05 12:45:35;;;;;;;3.95;1.40;;;;;;;20.93;45.77;100968.34;6181260;23;20070;-74
2023/07/05 12:48:25;;;;;;;4.25;1.40;;;;;;;21.12;44.73;100972.69;6182701;23;20035;-73
2023/07/05 12:51:03;;;;;;;4.72;1.40;;;;;;;20.91;42.17;100977.34;6181697;23;20063;-74
2023/07/05 12:53:29;;;;;;;5.40;1.52;;;;;;;20.81;42.12;100968.13;6183021;23;20446;-74
2023/07/05 12:55:57;;;;;;;2.30;1.35;;;;;;;20.90;43.30;100978.28;6182161;23;20007;-74
2023/07/05 12:58:26;;;;;;;3.67;1.60;;;;;;;21.14;43.62;100980.59;6182842;23;20411;-70
2023/07/05 13:00:54;;;;;;;3.90;1.45;;;;;;;20.97;43.15;100978.84;6182516;23;20013;-70
2023/07/05 13:03:20;;;;;;;2.95;1.40;;;;;;;20.91;42.98;100991.53;6182958;23;20012;-70
2023/07/05 13:05:46;;;;;;;5.57;1.50;;;;;;;20.82;41.02;100992.03;6181820;23;20021;-70
2023/07/05 13:08:14;;;;;;;2.75;1.40;;;;;;;20.68;41.60;100990.06;6132530;23;20406;-70
2023/07/05 13:10:40;;;;;;;3.60;1.30;;;;;;;20.61;42.37;100999.28;6158434;23;20052;-70
2023/07/05 13:13:39;;;;;;;5.78;1.52;;;;;;;20.89;44.06;101005.88;6181443;23;20009;-70
2023/07/05 13:16:45;;;;;;;2.88;1.40;;;;;;;21.08;42.78;100998.63;6113043;23;20012;-75
2023/07/05 13:19:12;;;;;;;4.63;1.55;;;;;;;21.14;41.41;100999.25;6176016;23;20029;-74
2023/07/05 13:21:49;;;;;;;9.27;1.60;;;;;;;21.31;42.02;101015.19;6156142;23;20024;-74
2023/07/05 13:24:28;;;;;;;5.43;2.10;;;;;;;21.05;40.14;101021.91;6157103;23;20005;-74
2023/07/05 13:26:55;;;;;;;5.75;1.52;;;;;;;21.17;41.14;101009.75;6181935;23;20005;-76
2023/07/05 13:29:23;;;;;;;3.92;1.50;;;;;;;21.14;39.51;101023.22;6182102;23;20013;-77
2023/07/05 13:31:52;;;;;;;4.30;1.50;;;;;;;21.20;40.41;101022.91;6181875;23;20008;-77
2023/07/05 13:34:18;;;;;;;2.92;1.50;;;;;;;21.16;39.53;101016.00;6182337;23;20084;-76
2023/07/05 13:36:45;;;;;;;6.25;1.90;;;;;;;21.50;43.09;101022.19;6157046;23;20418;-73
2023/07/05 13:39:15;;;;;;;6.25;1.73;;;;;;;21.57;43.86;101020.94;6180351;23;20005;-74
2023/07/05 13:41:42;;;;;;;2.45;1.30;;;;;;;21.57;42.79;101026.25;6158280;23;20013;-74
2023/07/05 13:44:17;;;;;;;3.95;1.40;;;;;;;21.34;41.04;101027.50;6132930;23;20093;-75
2023/07/05 13:46:43;;;;;;;4.13;1.25;;;;;;;21.22;43.73;101021.88;6181134;23;20004;-74
2023/07/05 13:49:09;;;;;;;5.05;1.50;;;;;;;21.36;44.97;101028.25;6157891;23;20009;-73
2023/07/05 13:51:41;;;;;;;6.05;1.50;;;;;;;21.49;43.23;101033.78;6156062;23;20031;-68
2023/07/05 13:57:26;;;;;;;1.70;1.20;;;;;;;21.28;42.21;101040.19;6237085;22;20020;-70
2023/07/05 14:02:34;;;;;;;3.83;1.60;;;;;;;21.31;43.27;101052.50;6241535;22;20031;-71
2023/07/05 14:05:03;;;;;;;4.07;1.52;;;;;;;21.18;41.95;101035.47;6218990;22;20103;-72
2023/07/05 14:12:56;;;;;;;4.63;1.73;;;;;;;21.30;42.33;101064.09;6264719;22;20020;-70
2023/07/05 14:23:25;;;;;;;3.35;1.63;;;;;;;21.10;43.10;101071.38;6265426;22;20043;-70
2023/07/05 14:25:51;;;;;;;5.28;2.03;;;;;;;20.87;40.14;101045.91;6227009;22;20359;-72
2023/07/05 14:41:17;;;;;;;5.43;2.33;;;;;;;21.64;42.09;101070.31;6259538;22;20019;-68
2023/07/05 14:48:53;;;;;;;5.40;2.08;;;;;;;21.95;42.73;101066.81;6264987;22;20031;-68
2023/07/05 15:06:28;;;;;;;4.78;1.88;;;;;;;21.85;41.41;101070.06;6243912;22;20024;-70
2023/07/05 15:09:13;;;;;;;10.13;2.25;;;;;;;21.87;42.08;101087.72;6167992;23;20040;-70
2023/07/05 15:15:00;;;;;;;4.63;1.70;;;;;;;21.95;40.95;101089.94;6246376;22;20054;-68
2023/07/05 15:20:47;;;;;;;4.55;2.10;;;;;;;21.70;40.45;101085.97;6246018;23;20012;-68
2023/07/05 15:26:34;;;;;;;3.38;1.70;;;;;;;21.79;40.78;101090.81;6246008;23;20050;-68
2023/07/05 15:29:00;;;;;;;3.63;1.80;;;;;;;21.77;39.90;101098.03;6218738;23;20008;-70
2023/07/05 15:31:26;;;;;;;4.15;2.00;;;;;;;21.88;42.99;101099.25;6193537;23;20019;-70
2023/07/05 15:33:53;;;;;;;3.88;1.70;;;;;;;21.85;42.16;101096.75;6193397;22;20430;-69
2023/07/05 15:36:18;;;;;;;3.80;1.88;;;;;;;21.62;42.86;101104.19;6193239;23;20016;-71
2023/07/05 15:38:44;;;;;;;5.40;1.70;;;;;;;21.46;40.92;101110.34;6193900;23;20374;-72
2023/07/05 15:41:09;;;;;;;3.28;1.90;;;;;;;21.20;39.62;101108.16;6168671;23;20012;-73
2023/07/05 15:43:35;;;;;;;3.47;1.80;;;;;;;21.01;40.77;101108.28;6193862;23;20398;-72
2023/07/05 15:46:01;;;;;;;3.90;1.70;;;;;;;20.86;41.55;101112.56;6218044;23;20107;-72
2023/07/05 15:48:45;;;;;;;5.07;2.08;;;;;;;20.88;42.39;101118.69;6219055;23;20008;-73
2023/07/05 15:51:11;;;;;;;2.95;1.90;;;;;;;20.60;41.97;101117.34;6218528;23;20015;-74
2023/07/05 15:53:37;;;;;;;3.60;1.70;;;;;;;20.60;43.20;101120.00;6217369;23;20015;-73
2023/07/05 15:56:03;;;;;;;3.90;2.22;;;;;;;20.47;46.26;101119.75;6192412;23;20008;-73
2023/07/05 15:58:31;;;;;;;5.57;1.83;;;;;;;20.36;46.72;101114.97;6192445;23;20011;-73
2023/07/05 16:01:02;;;;;;;4.28;2.08;;;;;;;20.47;48.01;101134.88;6192982;23;20412;-73
2023/07/05 16:03:29;;;;;;;4.95;2.47;;;;;;;20.32;49.21;101123.19;6217808;23;20003;-73
2023/07/05 16:05:55;;;;;;;3.10;1.85;;;;;;;20.36;46.26;101128.28;6192912;23;20091;-72
2023/07/05 16:08:21;;;;;;;6.57;2.28;;;;;;;20.25;47.73;101134.09;6217436;23;20364;-73
2023/07/05 16:10:47;;;;;;;4.13;1.98;;;;;;;20.16;47.96;101128.38;6192608;23;20065;-73
2023/07/05 16:13:13;;;;;;;6.05;2.08;;;;;;;20.13;48.71;101144.47;6216660;23;20124;-72
2023/07/05 16:15:39;;;;;;;3.60;1.90;;;;;;;20.11;49.54;101141.88;6191492;23;20012;-70
2023/07/05 16:18:07;;;;;;;5.22;1.80;;;;;;;20.10;49.55;101136.63;6191072;23;20008;-73
2023/07/05 16:20:34;;;;;;;6.45;1.98;;;;;;;20.05;49.66;101144.84;6217809;23;20028;-69
2023/07/05 16:23:00;;;;;;;5.45;2.00;;;;;;;20.02;49.93;101147.63;6190610;23;20012;-72
2023/07/05 16:25:29;;;;;;;6.43;2.40;;;;;;;20.00;50.90;101147.72;6192026;23;20015;-72
2023/07/05 16:27:55;;;;;;;7.32;2.47;;;;;;;20.02;51.00;101144.97;6216721;23;20386;-70
2023/07/05 16:30:21;;;;;;;6.97;2.10;;;;;;;20.02;50.87;101151.16;6192709;23;20090;-70
2023/07/05 16:32:47;;;;;;;4.25;2.10;;;;;;;19.89;50.04;101152.66;6190038;23;20416;-70
2023/07/05 16:35:13;;;;;;;4.82;2.00;;;;;;;19.87;51.80;101138.59;6165033;23;20405;-69
2023/07/05 16:37:39;;;;;;;4.75;1.85;;;;;;;19.96;51.73;101140.81;6216582;23;20004;-72
2023/07/05 16:40:05;;;;;;;5.45;2.22;;;;;;;20.12;52.37;101162.22;6191819;23;20099;-72
2023/07/05 16:42:31;;;;;;;4.97;1.80;;;;;;;20.20;52.36;101156.53;6215339;23;20427;-69
2023/07/05 16:44:58;;;;;;;7.68;2.40;;;;;;;20.15;52.81;101155.91;6217689;23;20031;-69
2023/07/05 16:47:24;;;;;;;5.90;2.47;;;;;;;20.03;51.63;101158.22;6215182;23;20087;-69
2023/07/05 16:49:50;;;;;;;7.35;2.22;;;;;;;20.04;52.28;101169.69;6189471;23;20393;-73
2023/07/05 16:52:17;;;;;;;6.60;2.50;;;;;;;20.20;52.21;101160.09;6215545;23;20314;-73
2023/07/05 16:54:43;;;;;;;8.35;2.17;;;;;;;20.18;52.34;101161.94;6216453;23;20011;-69
2023/07/05 16:57:08;;;;;;;5.90;1.77;;;;;;;20.27;51.58;101157.13;6190997;23;20008;-69
2023/07/05 16:59:35;;;;;;;5.95;2.58;;;;;;;20.33;51.85;101163.03;6191827;23;20314;-69
2023/07/05 17:02:02;;;;;;;7.35;2.15;;;;;;;20.38;52.64;101157.47;6191898;23;20016;-70
2023/07/05 17:04:28;;;;;;;7.45;2.28;;;;;;;20.29;51.57;101171.25;6191982;23;20047;-69
2023/07/05 17:06:54;;;;;;;6.28;2.65;;;;;;;20.24;50.95;101172.31;6243153;23;20011;-73
2023/07/05 17:09:21;;;;;;;8.25;2.53;;;;;;;20.07;52.08;101167.78;6190105;23;20485;-69
2023/07/05 17:11:48;;;;;;;6.22;2.20;;;;;;;20.19;52.06;101168.13;6216090;23;20011;-73
2023/07/05 17:14:15;;;;;;;3.97;1.95;;;;;;;20.03;53.19;101163.53;6191631;23;20345;-69
2023/07/05 17:16:41;;;;;;;4.82;2.10;;;;;;;20.07;52.39;101175.75;6215437;23;20011;-70
2023/07/05 17:19:09;;;;;;;4.53;1.95;;;;;;;20.05;53.55;101172.28;6216102;23;20000;-69
2023/07/05 17:21:35;;;;;;;5.60;2.40;;;;;;;19.92;52.61;101183.59;6215632;23;20012;-73
2023/07/05 17:24:01;;;;;;;5.47;2.05;;;;;;;19.83;52.56;101188.38;6189959;22;20150;-72
2023/07/05 17:26:27;;;;;;;9.27;2.72;;;;;;;19.72;53.60;101186.19;6191538;23;20234;-73
2023/07/05 17:28:57;;;;;;;5.93;2.53;;;;;;;19.69;52.91;101191.59;6189296;23;20039;-70
2023/07/05 17:31:24;;;;;;;5.43;2.17;;;;;;;19.69;54.09;101191.59;6166899;23;20036;-73
2023/07/05 17:33:52;;;;;;;4.82;2.10;;;;;;;19.54;54.01;101201.13;6217627;22;20008;-70
2023/07/05 17:36:20;;;;;;;4.50;2.30;;;;;;;19.51;56.52;101192.41;6217260;23;20004;-73
2023/07/05 17:38:48;;;;;;;5.80;2.22;;;;;;;19.42;57.30;101198.16;6191151;23;20008;-70
2023/07/05 17:41:14;;;;;;;3.83;2.00;;;;;;;19.27;57.33;101187.25;6217228;23;20377;-73
2023/07/05 17:43:40;;;;;;;8.10;2.38;;;;;;;19.23;58.23;101209.56;6191493;23;20093;-73
2023/07/05 17:46:29;;;;;;;7.28;2.50;;;;;;;19.15;58.94;101206.34;6189906;23;20094;-73
2023/07/05 17:49:00;;;;;;;4.07;2.20;;;;;;;18.76;60.64;101205.25;6206974;23;20005;-70
2023/07/05 17:51:30;;;;;;;7.20;2.72;;;;;;;18.60;60.96;101207.63;6213861;23;20007;-70
2023/07/05 17:53:55;;;;;;;4.22;2.40;;;;;;;18.42;61.90;101216.31;6189000;22;20016;-71
2023/07/05 17:56:24;;;;;;;4.00;2.22;;;;;;;18.21;63.95;101229.47;6213450;23;20011;-70
2023/07/05 17:58:51;;;;;;;11.63;2.95;;;;;;;18.02;68.13;101233.75;6187508;23;20004;-70
2023/07/05 18:01:19;;;;;;;9.20;3.72;;;;;;;17.64;71.08;101247.41;6189244;23;20026;-67
2023/07/05 18:03:46;;;;;;;11.45;3.92;;;;;;;17.30;73.31;101252.06;6216633;22;20015;-71
2023/07/05 18:06:15;;;;;;;9.20;3.78;;;;;;;16.96;75.84;101279.63;6215003;23;20016;-68
2023/07/05 18:08:48;;;;;;;7.63;3.77;;;;;;;16.81;76.42;101258.94;6181698;23;20020;-71
2023/07/05 18:11:14;;;;;;;9.30;4.10;;;;;;;16.60;77.63;101263.09;6215077;23;20015;-70
2023/07/05 18:13:41;;;;;;;8.32;3.65;;;;;;;16.44;79.84;101271.47;6215647;22;20434;-71
2023/07/05 18:16:10;;;;;;;7.10;4.22;;;;;;;16.32;79.94;101271.84;6215197;23;20015;-71
2023/07/05 18:18:35;;;;;;;6.68;3.67;;;;;;;16.18;80.62;101266.97;6214488;23;20075;-71
2023/07/05 18:21:03;;;;;;;6.78;4.10;;;;;;;16.05;81.53;101274.38;6216520;23;20091;-71
2023/07/05 18:23:30;;;;;;;6.53;4.15;;;;;;;16.02;82.40;101278.84;6216818;23;20087;-70
2023/07/05 18:25:58;;;;;;;7.38;3.90;;;;;;;15.79;83.71;101272.44;6216444;23;20016;-71
2023/07/05 18:28:26;;;;;;;6.55;4.20;;;;;;;15.68;83.66;101288.53;6214967;23;20332;-67
2023/07/05 18:31:00;;;;;;;7.22;4.28;;;;;;;15.50;84.42;101281.94;6214308;23;20016;-67
2023/07/05 18:33:27;;;;;;;5.32;3.60;;;;;;;15.42;85.99;101292.69;6216014;23;20008;-68
2023/07/05 18:35:54;;;;;;;8.60;3.92;;;;;;;15.35;85.49;101287.59;6214789;23;20000;-67
2023/07/05 18:38:21;;;;;;;6.95;3.75;;;;;;;15.26;85.27;101307.19;6216114;23;20007;-70
2023/07/05 18:40:49;;;;;;;6.68;4.35;;;;;;;15.16;86.25;101298.59;6216679;23;20019;-70
2023/07/05 18:43:20;;;;;;;5.95;4.35;;;;;;;15.10;86.96;101301.41;6217503;23;20093;-71
2023/07/05 18:45:50;;;;;;;5.65;4.57;;;;;;;15.07;87.85;101319.97;6244943;22;20438;-67
2023/07/05 18:48:16;;;;;;;8.73;4.65;;;;;;;15.02;87.97;101313.91;6218336;23;20079;-67
2023/07/05 18:50:47;;;;;;;4.93;3.78;;;;;;;14.92;86.79;101315.88;6219235;23;20092;-67
2023/07/05 18:53:14;;;;;;;4.53;2.70;;;;;;;14.94;84.89;101297.38;6218074;23;20008;-68
2023/07/05 18:55:40;;;;;;;3.78;2.40;;;;;;;14.78;85.44;101292.41;6219092;23;20087;-71
2023/07/05 18:58:05;;;;;;;4.13;2.75;;;;;;;14.78;85.40;101313.53;6193296;23;20035;-68
2023/07/05 19:00:32;;;;;;;4.05;2.80;;;;;;;14.64;86.90;101307.69;6217484;23;20004;-70
2023/07/05 19:02:58;;;;;;;4.53;3.30;;;;;;;14.67;87.31;101303.22;6217460;23;20417;-68
2023/07/05 19:05:23;;;;;;;4.70;3.30;;;;;;;14.63;86.72;101312.09;6218348;23;20016;-71
2023/07/05 19:07:49;;;;;;;5.95;3.70;;;;;;;14.75;86.46;101328.56;6217304;23;20029;-71
2023/07/05 19:10:17;;;;;;;6.40;4.00;;;;;;;14.74;87.76;101330.34;6217786;23;20099;-71
2023/07/05 19:12:43;;;;;;;5.60;3.78;;;;;;;14.75;87.77;101339.97;6193498;23;20074;-71
2023/07/05 19:15:09;;;;;;;6.70;4.00;;;;;;;14.71;88.00;101339.19;6192607;23;20016;-68
2023/07/05 19:17:36;;;;;;;4.68;3.90;;;;;;;14.71;88.48;101335.66;6193175;23;20012;-68
2023/07/05 19:20:04;;;;;;;5.78;4.35;;;;;;;14.78;88.86;101339.06;6193660;23;20012;-68
2023/07/05 19:22:35;;;;;;;5.05;4.22;;;;;;;14.75;89.09;101347.88;6217538;23;20004;-68
2023/07/05 19:25:01;;;;;;;6.53;3.88;;;;;;;14.70;89.25;101344.50;6217868;23;20016;-68
2023/07/05 19:27:26;;;;;;;7.57;4.78;;;;;;;14.78;89.21;101344.31;6193431;23;20004;-68
2023/07/05 19:29:52;;;;;;;5.80;4.30;;;;;;;14.74;88.89;101348.81;6167127;23;20011;-68
2023/07/05 19:32:18;;;;;;;5.88;5.00;;;;;;;14.71;89.88;101349.75;6192851;23;20012;-68
2023/07/05 19:34:44;;;;;;;7.00;4.75;;;;;;;14.69;90.71;101345.38;6215429;23;20082;-68
2023/07/05 19:37:09;;;;;;;8.88;5.13;;;;;;;14.75;89.77;101347.03;6217832;23;20365;-68
2023/07/05 19:39:35;;;;;;;7.28;4.55;;;;;;;14.82;89.38;101338.94;6190320;23;20220;-71
2023/07/05 19:42:00;;;;;;;6.25;4.75;;;;;;;14.75;88.63;101342.63;6192375;23;20012;-72
2023/07/05 19:44:26;;;;;;;7.70;5.03;;;;;;;14.69;89.74;101343.63;6192198;23;20020;-72
2023/07/05 19:46:51;;;;;;;6.72;4.68;;;;;;;14.71;89.52;101347.09;6191632;23;20074;-72
2023/07/05 19:49:17;;;;;;;5.38;4.10;;;;;;;14.79;88.15;101351.34;6191626;23;20008;-72
2023/07/05 19:51:42;;;;;;;7.88;5.18;;;;;;;14.71;89.81;101359.41;6191337;23;20082;-72
2023/07/05 19:54:08;;;;;;;6.57;4.65;;;;;;;14.69;89.56;101361.22;6190231;23;20099;-71
2023/07/05 19:56:33;;;;;;;7.75;5.18;;;;;;;14.62;90.34;101359.59;6190266;23;20463;-72
2023/07/05 19:58:59;;;;;;;6.32;4.97;;;;;;;14.56;89.60;101364.06;6189629;23;20008;-72
2023/07/05 20:01:25;;;;;;;7.95;4.75;;;;;;;14.62;89.25;101364.88;6215816;23;20012;-72
2023/07/05 20:04:00;;;;;;;7.55;5.03;;;;;;;14.59;89.57;101371.03;6190324;22;20015;-72
2023/07/05 20:06:26;;;;;;;7.13;4.78;;;;;;;14.58;89.92;101376.34;6190568;23;20103;-68
2023/07/05 20:08:57;;;;;;;8.13;4.47;;;;;;;14.64;89.06;101365.69;6189985;23;20011;-68
2023/07/05 20:11:27;;;;;;;;;;;;;;;14.81;86.28;101366.25;6192359;23;20430;-68
2023/07/05 20:13:53;;;;;;;9.05;4.78;;;;;;;14.62;88.77;101375.44;6216835;22;19961;-72
2023/07/05 20:16:19;;;;;;;5.68;4.75;;;;;;;14.55;89.50;101372.91;6190484;23;20016;-72
2023/07/05 20:18:45;;;;;;;8.15;5.28;;;;;;;14.48;90.48;101383.56;6191709;23;20095;-72
2023/07/05 20:21:11;;;;;;;6.65;4.70;;;;;;;14.37;91.08;101383.78;6192864;23;20130;-72
2023/07/05 20:23:36;;;;;;;8.02;4.93;;;;;;;14.44;90.16;101392.44;6191455;23;20337;-72
2023/07/05 20:26:02;;;;;;;5.50;5.00;;;;;;;14.36;90.81;101392.59;6192404;23;20012;-72
2023/07/05 20:28:29;;;;;;;6.78;4.72;;;;;;;14.24;91.94;101390.16;6216481;23;20009;-72
2023/07/05 20:30:57;;;;;;;6.10;5.13;;;;;;;14.25;91.68;101389.28;6243714;23;20082;-72
2023/07/05 20:33:28;;;;;;;5.95;4.75;;;;;;;14.28;91.82;101383.94;6193915;23;20507;-72
2023/07/05 20:36:01;;;;;;;7.18;5.25;;;;;;;14.19;91.84;101388.50;6217264;23;20012;-71
2023/07/05 20:38:28;;;;;;;6.38;4.85;;;;;;;14.12;91.89;101397.44;6189892;23;20004;-68
2023/07/05 20:40:57;;;;;;;7.68;4.80;;;;;;;14.03;92.30;101387.88;6216802;23;20039;-68
2023/07/05 20:43:29;;;;;;;6.45;5.18;;;;;;;14.01;92.35;101391.47;6193424;23;20430;-68
2023/07/05 20:46:02;;;;;;;6.20;4.97;;;;;;;14.01;92.89;101394.97;6192630;23;20453;-68
2023/07/05 20:48:29;;;;;;;8.38;5.00;;;;;;;14.02;92.24;101394.06;6191747;23;20061;-68
2023/07/05 20:51:06;;;;;;;7.32;5.00;;;;;;;14.07;92.46;101394.00;6243726;23;20000;-68
2023/07/05 20:53:32;;;;;;;7.60;5.20;;;;;;;13.93;93.27;101401.25;6215986;23;20364;-68
2023/07/05 20:55:59;;;;;;;6.18;5.28;;;;;;;13.86;93.18;101406.66;6187763;23;20027;-69
2023/07/05 20:58:28;;;;;;;5.95;5.22;;;;;;;13.83;93.79;101401.44;6215178;23;20000;-69
2023/07/05 21:00:56;;;;;;;7.15;5.47;;;;;;;13.91;93.21;101411.81;6216199;23;20437;-69
2023/07/05 21:03:21;;;;;;;6.63;5.53;;;;;;;13.81;94.35;101411.09;6217542;23;20039;-68
2023/07/05 21:05:47;;;;;;;6.65;5.30;;;;;;;13.90;93.35;101411.84;6243853;22;20027;-68
2023/07/05 21:08:13;;;;;;;9.35;5.38;;;;;;;13.85;93.25;101414.56;6191265;23;20394;-71
2023/07/05 21:10:46;;;;;;;5.90;5.28;;;;;;;13.81;93.54;101416.38;6192896;23;20008;-72
2023/07/05 21:13:17;;;;;;;7.80;5.55;;;;;;;13.69;94.03;101420.06;6218045;23;20004;-69
2023/07/05 21:15:45;;;;;;;7.60;5.40;;;;;;;13.76;94.06;101414.69;6217646;23;20007;-69
2023/07/05 21:18:11;;;;;;;6.78;6.00;;;;;;;13.74;94.30;101425.25;6217753;23;20456;-70
2023/07/05 21:20:45;;;;;;;7.85;5.72;;;;;;;13.73;94.81;101414.75;6216209;23;20010;-69
2023/07/05 21:23:16;;;;;;;7.10;5.65;;;;;;;13.78;93.92;101413.78;6192213;23;20012;-69
2023/07/05 21:25:47;;;;;;;6.50;5.57;;;;;;;13.77;94.60;101417.31;6244496;22;20000;-69
2023/07/05 21:28:12;;;;;;;7.60;5.85;;;;;;;13.78;94.82;101420.84;6191764;23;20020;-73
2023/07/05 21:30:38;;;;;;;8.90;6.35;;;;;;;13.73;95.11;101412.97;6216749;23;20425;-71
2023/07/05 21:33:04;;;;;;;7.63;6.57;;;;;;;13.68;95.57;101413.06;6192093;23;20008;-71
2023/07/05 21:35:29;;;;;;;8.57;6.38;;;;;;;13.70;95.86;101420.94;6217646;23;20433;-71
2023/07/05 21:37:58;;;;;;;8.32;6.70;;;;;;;13.66;96.19;101424.50;6190371;23;20342;-71
2023/07/05 21:40:26;;;;;;;11.85;6.57;;;;;;;13.62;96.49;101423.69;6191669;23;20008;-71
2023/07/05 21:42:53;;;;;;;10.57;6.95;;;;;;;13.65;96.61;101422.78;6217353;23;20496;-71